• Join FlightAware (Why Join?)
  • Login
  • US Flag 
08:20PM EDT


 

Airport Tracker/Info


-or-


 

Live Flight TrackerFlight Track Log ✈ N777NC ✈ 06-Jul-2013 ✈ KPIT - KATL

Flight Track Log - Related Links

Times and Time Zones

All times are in EDT time to prevent confusion due to time zone crossing. See the N777NC flight status page for this flight to view local times or setup timezone preferences in your user account.

Time Position Orientation Groundspeed Altitude Reporting Facility
EDT Latitude Longitude Course Direction KTS MPH feet Rate Location/Type
03:38PM 40.1620 -80.1375 214° Southwest  Level FlightAware Approximate
03:39PM 40.0810 -80.2084 214° Southwest  Level FlightAware Approximate
03:39PM 40.2733 -80.3356 212° Southwest 240 276 9,100  Level Cleveland Center
03:40PM 40.0015 -80.2819 217° Southwest  Level FlightAware Approximate
03:40PM 40.1961 -80.3358 180° South 257 296 11,100  Level Cleveland Center
03:41PM 39.9232 -80.3575 215° Southwest  Level FlightAware Approximate
03:41PM 40.1128 -80.3497 187° South 281 323 12,300  Level Cleveland Center
03:42PM 39.8430 -80.4297 215° Southwest  Level FlightAware Approximate
03:42PM 40.0294 -80.4014 205° Southwest 314 361 14,500  Level Cleveland Center
03:43PM 39.7697 -80.5106 237° Southwest  Level FlightAware Approximate
03:43PM 39.9483 -80.4558 207° Southwest 327 376 16,300  Level Cleveland Center
03:44PM 39.6884 -80.5793 212° Southwest  Level FlightAware Approximate
03:44PM 39.8608 -80.5100 205° Southwest 339 390 17,900  Level Cleveland Center
03:45PM 39.7733 -80.5669 207° Southwest 344 396 19,000 1,200 Climbing Cleveland Center
03:46PM 39.6836 -80.6289 208° Southwest 349 402 20,400 1,260 Climbing Cleveland Center
03:46PM 39.6317 -80.6617 206° Southwest 368 423 21,000 1,200 Climbing Indianapolis Center
03:48PM 39.5369 -80.7217 206° Southwest 377 434 22,400 1,020 Climbing Indianapolis Center
03:49PM 39.4403 -80.7847 207° Southwest 387 445 23,100 780 Climbing Indianapolis Center
03:50PM 39.3403 -80.8514 207° Southwest 400 460 24,000 900 Climbing Indianapolis Center
03:51PM 39.2386 -80.9192 207° Southwest 408 470 25,000 900 Climbing Indianapolis Center
03:52PM 39.1367 -80.9881 208° Southwest 413 475 25,900 840 Climbing Indianapolis Center
03:53PM 39.0325 -81.0592 208° Southwest 420 483 26,800 840 Climbing Indianapolis Center
03:54PM 38.9072 -81.1450 208° Southwest 423 487 27,700 540 Climbing Indianapolis Center
03:55PM 38.8011 -81.2181 208° Southwest 429 494 28,000 120 Climbing Indianapolis Center
03:56PM 38.6911 -81.2903 207° Southwest 436 502 28,000  Level Indianapolis Center
03:57PM 38.5789 -81.3622 207° Southwest 440 506 28,000  Level Indianapolis Center
03:58PM 38.4664 -81.4297 205° Southwest 440 506 28,000  Level Indianapolis Center
03:59PM 38.3536 -81.4928 204° Southwest 440 506 28,000  Level Indianapolis Center
04:00PM 38.2397 -81.5522 202° Southwest 439 505 28,000  Level Indianapolis Center
04:01PM 38.1258 -81.6053 200° South 436 502 28,000  Level Indianapolis Center
04:02PM 38.0106 -81.6572 200° South 438 504 28,000  Level Indianapolis Center
04:03PM 37.8939 -81.7039 198° South 437 503 28,000  Level Indianapolis Center
04:04PM 37.7669 -81.7678 202° Southwest 439 505 28,000  Level Indianapolis Center
04:05PM 37.6644 -81.8511 213° Southwest 438 504 28,000  Level Indianapolis Center
04:06PM 37.5553 -81.9194 206° Southwest 437 503 28,000  Level Indianapolis Center
04:07PM 37.4467 -81.9919 208° Southwest 438 504 28,000  Level Indianapolis Center
04:08PM 37.3356 -82.0564 205° Southwest 436 502 28,000  Level Indianapolis Center
04:09PM 37.2244 -82.1231 206° Southwest 439 505 28,000  Level Indianapolis Center
04:10PM 37.1158 -82.1919 207° Southwest 436 502 28,000  Level Indianapolis Center
04:11PM 37.0056 -82.2556 205° Southwest 433 498 28,000  Level Indianapolis Center
04:12PM 36.8936 -82.3169 204° Southwest 434 499 28,000  Level Indianapolis Center
04:13PM 36.7800 -82.3728 201° Southwest 435 501 28,000  Level Indianapolis Center
04:14PM 36.6467 -82.4358 201° Southwest 433 498 28,000  Level Indianapolis Center
04:15PM 36.5303 -82.4861 199° South 434 499 28,000  Level Atlanta Center
04:16PM 36.4139 -82.5294 197° South 434 499 28,000  Level Atlanta Center
04:17PM 36.2978 -82.5703 196° South 434 499 28,000  Level Atlanta Center
04:18PM 36.1814 -82.6083 195° South 434 499 28,000  Level Atlanta Center
04:19PM 36.0525 -82.6492 194° South 434 499 28,000  Level Atlanta Center
04:20PM 35.9361 -82.6847 194° South 434 499 28,000  Level Atlanta Center
04:21PM 35.8219 -82.7275 197° South 434 499 28,000  Level Atlanta Center
04:22PM 35.7119 -82.7881 204° Southwest 434 499 28,000  Level Atlanta Center
04:23PM 35.5997 -82.8511 205° Southwest 434 499 28,000 -360 Level Atlanta Center
04:24PM 35.4919 -82.9164 206° Southwest 440 506 27,300 -780 Descending Atlanta Center
04:25PM 35.3883 -82.9867 209° Southwest 440 506 26,500 -900 Descending Atlanta Center
04:26PM 35.2908 -83.0567 210° Southwest 424 488 25,600 -780 Descending Atlanta Center
04:27PM 35.2056 -83.1083 206° Southwest 419 482 25,000 -900 Descending Atlanta Center
04:28PM 35.0808 -83.1506 195° South 413 475 23,900 -1,080 Descending Atlanta Center
04:29PM 34.9581 -83.1897 195° South 430 495 22,900 -1,020 Descending Atlanta Center
04:30PM 34.8456 -83.2289 196° South 437 503 21,900 -1,080 Descending Atlanta Center
04:31PM 34.7250 -83.2933 204° Southwest 432 497 20,800 -1,080 Descending Atlanta Center
04:32PM 34.6208 -83.3497 204° Southwest 425 489 19,800 -1,020 Descending Atlanta Center
04:33PM 34.5442 -83.4486 227° Southwest 398 458 18,800 -1,200 Descending Atlanta Center
04:34PM 34.4486 -83.5175 211° Southwest 403 464 17,500 -1,320 Descending Atlanta Center
04:35PM 34.3592 -83.5983 217° Southwest 403 464 16,200 -1,680 Descending Atlanta Center
04:36PM 34.2800 -83.6842 222° Southwest 393 452 14,200 -1,140 Descending Atlanta Center
04:37PM 34.1925 -83.7525 213° Southwest 386 444 14,000 -120 Descending Atlanta Center
04:38PM 34.1008 -83.8181 211° Southwest 381 438 14,000 -300 Level Atlanta Center
04:39PM 34.0333 -83.8833 219° Southwest 390 449 13,500 -960 Descending Atlanta TRACON
04:40PM 33.9667 -83.9833 231° Southwest 392 451 12,300 -720 Descending Atlanta TRACON
04:41PM 33.8833 -84.0833 225° Southwest 383 441 12,100 -120 Descending Atlanta TRACON
04:42PM 33.8333 -84.1667 234° Southwest 320 368 12,100  Level Atlanta TRACON
04:43PM 33.7833 -84.2500 234° Southwest 283 326 12,100 -120 Level Atlanta TRACON
04:44PM 33.7500 -84.3167 239° Southwest 256 295 11,900 -840 Descending Atlanta TRACON
04:45PM 33.7333 -84.4000 256° West 251 289 10,500 -1,620 Descending Atlanta TRACON
04:46PM 33.7167 -84.4667 253° West 268 308 8,700 -1,440 Descending Atlanta TRACON
04:47PM 33.7000 -84.5500 257° West 245 282 7,800 -1,200 Descending Atlanta TRACON
04:48PM 33.7167 -84.6333 284° West 243 280 6,300 -1,260 Descending Atlanta TRACON
04:49PM 33.7167 -84.7333 270° West 239 275 5,200 -600 Descending Atlanta TRACON
04:50PM 33.7167 -84.8000 270° West 232 267 5,100 -60 Descending Atlanta TRACON
04:51PM 33.7167 -84.8833 270° West 243 280 5,100  Level Atlanta TRACON
04:52PM 33.6833 -84.8833 180° South 222 255 5,100  Level Atlanta TRACON
04:53PM 33.6500 -84.8167 121° Southeast 226 260 5,100  Level Atlanta TRACON
04:54PM 33.6500 -84.7500 90° East 217 250 5,100 -120 Level Atlanta TRACON
04:55PM 33.6500 -84.6833 90° East 186 214 4,900 -600 Descending Atlanta TRACON
04:56PM 33.6500 -84.6167 90° East 191 220 3,900 -960 Descending Atlanta TRACON